createdAt,value
2023-02-22T00:01:47.421Z,101822.72
2023-02-22T00:04:16.005Z,101823.69
2023-02-22T00:06:42.642Z,101817.97
2023-02-22T00:09:10.313Z,101818.69
2023-02-22T00:11:38.602Z,101825.38
2023-02-22T00:14:05.576Z,101821.75
2023-02-22T00:16:32.227Z,101831.47
2023-02-22T00:18:58.764Z,101820.78
2023-02-22T00:21:25.248Z,101817.56
2023-02-22T00:23:54.604Z,101813.94
2023-02-22T00:26:23.377Z,101812.28
2023-02-22T00:28:53.286Z,101818.94
2023-02-22T00:31:21.566Z,101821.88
2023-02-22T00:33:48.181Z,101823.28
2023-02-22T00:36:15.514Z,101822.16
2023-02-22T00:38:42.487Z,101817.41
2023-02-22T00:41:09.892Z,101822.59
2023-02-22T00:43:36.637Z,101817.00
2023-02-22T00:46:03.239Z,101820.78
2023-02-22T00:48:29.799Z,101816.31
2023-02-22T00:50:56.289Z,101810.06
2023-02-22T00:53:25.307Z,101812.13
2023-02-22T00:55:52.779Z,101797.28
2023-02-22T00:58:19.984Z,101798.94
2023-02-22T01:00:46.933Z,101787.97
2023-02-22T01:03:15.433Z,101792.53
2023-02-22T01:05:42.668Z,101789.22
2023-02-22T01:08:11.968Z,101786.28
2023-02-22T01:10:39.572Z,101783.38
2023-02-22T01:13:09.329Z,101784.22
2023-02-22T01:15:38.498Z,101786.44
2023-02-22T01:18:06.090Z,101788.38
2023-02-22T01:20:33.122Z,101782.81
2023-02-22T01:23:01.595Z,101794.22
2023-02-22T01:25:30.762Z,101779.47
2023-02-22T01:27:59.115Z,101783.94
2023-02-22T01:30:32.925Z,101779.06
2023-02-22T01:33:00.930Z,101774.47
2023-02-22T01:35:31.752Z,101767.53
2023-02-22T01:37:58.622Z,101777.28
2023-02-22T01:40:31.215Z,101774.50
2023-02-22T01:43:04.040Z,101765.59
2023-02-22T01:45:30.646Z,101765.59
2023-02-22T01:48:08.680Z,101758.09
2023-02-22T01:50:42.328Z,101762.53
2023-02-22T01:53:13.698Z,101753.50
2023-02-22T01:55:40.631Z,101756.13
2023-02-22T01:58:08.777Z,101768.63
2023-02-22T02:00:36.462Z,101760.03
2023-02-22T02:03:11.131Z,101755.97
2023-02-22T02:05:39.014Z,101755.28
2023-02-22T02:08:37.000Z,101752.38
2023-02-22T02:11:09.050Z,101754.19
2023-02-22T02:13:36.501Z,101743.22
2023-02-22T02:16:03.463Z,101739.72
2023-02-22T02:18:32.530Z,101737.09
2023-02-22T02:21:21.639Z,101744.19
2023-02-22T02:24:00.778Z,101729.59
2023-02-22T02:26:48.908Z,101724.75
2023-02-22T02:29:18.422Z,101722.66
2023-02-22T02:32:19.182Z,101730.59
2023-02-22T02:35:06.729Z,101725.69
2023-02-22T02:37:57.612Z,101730.44
2023-02-22T02:40:41.207Z,101715.56
2023-02-22T02:43:14.332Z,101715.56
2023-02-22T02:46:10.841Z,101706.66
2023-02-22T02:48:42.023Z,101710.00
2023-02-22T02:51:14.321Z,101700.69
2023-02-22T02:53:46.749Z,101695.41
2023-02-22T02:56:13.313Z,101697.91
2023-02-22T02:58:52.828Z,101696.94
2023-02-22T03:01:49.215Z,101693.75
2023-02-22T03:04:23.467Z,101694.97
2023-02-22T03:07:23.995Z,101690.41
2023-02-22T03:10:07.722Z,101692.19
2023-02-22T03:13:09.808Z,101692.31
2023-02-22T03:16:12.454Z,101693.53
2023-02-22T03:19:08.912Z,101683.13
2023-02-22T03:21:44.334Z,101679.78
2023-02-22T03:24:25.729Z,101678.81
2023-02-22T03:27:03.298Z,101682.41
2023-02-22T03:29:36.668Z,101679.78
2023-02-22T03:32:07.697Z,101671.88
2023-02-22T03:34:38.676Z,101675.59
2023-02-22T03:37:21.965Z,101666.72
2023-02-22T03:39:51.175Z,101670.28
2023-02-22T03:42:29.640Z,101672.09
2023-02-22T03:45:00.009Z,101664.03
2023-02-22T03:47:42.424Z,101667.38
2023-02-22T03:50:29.833Z,101658.66
2023-02-22T03:52:59.097Z,101660.16
2023-02-22T03:55:25.804Z,101656.28
2023-02-22T03:57:56.684Z,101650.31
2023-02-22T04:00:25.408Z,101644.06
2023-02-22T04:02:52.117Z,101660.97
2023-02-22T04:05:19.294Z,101646.28
2023-02-22T04:07:45.780Z,101648.06
2023-02-22T04:10:13.843Z,101650.69
2023-02-22T04:12:40.378Z,101645.69
2023-02-22T04:15:08.877Z,101643.31
2023-02-22T04:17:35.412Z,101641.53
2023-02-22T04:20:01.926Z,101634.06
2023-02-22T04:22:28.409Z,101639.34
2023-02-22T04:24:55.065Z,101637.69
2023-02-22T04:27:21.608Z,101632.53
2023-02-22T04:29:48.155Z,101623.09
2023-02-22T04:32:14.663Z,101625.47
2023-02-22T04:34:41.231Z,101623.81
2023-02-22T04:37:07.759Z,101619.94
2023-02-22T04:39:34.261Z,101610.47
2023-02-22T04:42:00.744Z,101616.34
2023-02-22T04:44:27.227Z,101606.88
2023-02-22T04:46:53.769Z,101613.69
2023-02-22T04:49:20.235Z,101612.72
2023-02-22T04:51:46.767Z,101606.75
2023-02-22T04:54:13.705Z,101602.16
2023-02-22T04:56:40.277Z,101593.97
2023-02-22T04:59:06.786Z,101589.41
2023-02-22T05:01:37.622Z,101588.69
2023-02-22T05:04:06.378Z,101581.88
2023-02-22T05:06:32.934Z,101595.19
2023-02-22T05:08:59.528Z,101579.66
2023-02-22T05:11:25.964Z,101578.28
2023-02-22T05:13:52.609Z,101578.44
2023-02-22T05:16:19.509Z,101575.22
2023-02-22T05:18:46.058Z,101574.25
2023-02-22T05:21:13.561Z,101570.91
2023-02-22T05:23:40.286Z,101576.06
2023-02-22T05:26:07.158Z,101567.19
2023-02-22T05:28:33.872Z,101565.38
2023-02-22T05:31:00.379Z,101574.84
2023-02-22T05:33:26.867Z,101565.97
2023-02-22T05:35:56.047Z,101559.31
2023-02-22T05:38:22.996Z,101562.06
2023-02-22T05:40:49.660Z,101558.34
2023-02-22T05:43:16.217Z,101564.03
2023-02-22T05:45:42.703Z,101553.63
2023-02-22T05:48:09.236Z,101550.16
2023-02-22T05:50:35.717Z,101549.31
2023-02-22T05:53:02.449Z,101548.88
2023-02-22T05:55:28.947Z,101553.88
2023-02-22T05:57:55.528Z,101555.00
2023-02-22T06:00:28.190Z,101547.22
2023-02-22T06:03:08.001Z,101539.03
2023-02-22T06:05:35.067Z,101541.41
2023-02-22T06:08:02.904Z,101539.91
2023-02-22T06:10:29.424Z,101538.06
2023-02-22T06:12:56.814Z,101531.03
2023-02-22T06:15:25.985Z,101518.81
2023-02-22T06:17:53.623Z,101527.28
2023-02-22T06:20:22.696Z,101527.44
2023-02-22T06:22:53.894Z,101520.34
2023-02-22T06:25:23.971Z,101525.59
2023-02-22T06:27:50.994Z,101535.44
2023-02-22T06:30:19.916Z,101532.81
2023-02-22T06:32:46.526Z,101534.47
2023-02-22T06:35:14.569Z,101536.03
2023-02-22T06:37:41.064Z,101530.06
2023-02-22T06:40:07.705Z,101534.09
2023-02-22T06:42:34.349Z,101525.22
2023-02-22T06:45:00.931Z,101525.22
2023-02-22T06:47:27.492Z,101525.91
2023-02-22T06:49:58.500Z,101519.25
2023-02-22T06:52:25.443Z,101520.22
2023-02-22T06:54:52.013Z,101516.03
2023-02-22T06:57:18.745Z,101514.66
2023-02-22T06:59:45.259Z,101514.53
2023-02-22T07:02:12.482Z,101515.94
2023-02-22T07:04:41.014Z,101521.03
2023-02-22T07:07:08.780Z,101518.13
2023-02-22T07:09:35.290Z,101513.44
2023-02-22T07:12:01.816Z,101511.63
2023-02-22T07:14:28.353Z,101513.28
2023-02-22T07:16:54.804Z,101508.59
2023-02-22T07:19:21.237Z,101511.50
2023-02-22T07:21:48.110Z,101514.28
2023-02-22T07:24:14.665Z,101517.88
2023-02-22T07:26:41.974Z,101515.38
2023-02-22T07:29:08.551Z,101521.91
2023-02-22T07:31:38.894Z,101520.81
2023-02-22T07:34:05.544Z,101525.09
2023-02-22T07:36:32.105Z,101520.66
2023-02-22T07:38:58.622Z,101527.47
2023-02-22T07:41:25.247Z,101526.22
2023-02-22T07:43:52.201Z,101536.47
2023-02-22T07:46:18.759Z,101524.41
2023-02-22T07:48:45.286Z,101534.25
2023-02-22T07:51:16.334Z,101530.66
2023-02-22T07:53:42.997Z,101534.69
2023-02-22T07:56:09.495Z,101528.44
2023-02-22T07:58:36.052Z,101533.44
2023-02-22T08:01:02.605Z,101537.75
2023-02-22T08:03:36.406Z,101536.19
2023-02-22T08:06:05.323Z,101533.16
2023-02-22T08:08:31.930Z,101534.59
2023-02-22T08:10:58.466Z,101540.78
2023-02-22T08:13:25.216Z,101534.69
2023-02-22T08:15:54.919Z,101532.66
2023-02-22T08:18:23.116Z,101540.41
2023-02-22T08:20:51.981Z,101541.25
2023-02-22T08:23:19.907Z,101537.38
2023-02-22T08:25:46.466Z,101531.13
2023-02-22T08:28:15.254Z,101529.19
2023-02-22T08:30:45.116Z,101533.88
2023-02-22T08:33:19.177Z,101525.69
2023-02-22T08:35:49.611Z,101514.88
2023-02-22T08:38:29.206Z,101524.88
2023-02-22T08:40:56.422Z,101533.19
2023-02-22T08:43:23.367Z,101533.19
2023-02-22T08:45:51.003Z,101538.72
2023-02-22T08:48:18.219Z,101520.41
2023-02-22T08:50:44.799Z,101533.84
2023-02-22T08:53:13.621Z,101528.84
2023-02-22T08:55:41.761Z,101523.13
2023-02-22T08:58:12.031Z,101514.25
2023-02-22T09:00:40.284Z,101506.75
2023-02-22T09:03:09.420Z,101499.34
2023-02-22T09:05:35.991Z,101494.47
2023-02-22T09:08:02.862Z,101496.81
2023-02-22T09:10:32.069Z,101500.84
2023-02-22T09:13:00.957Z,101502.47
2023-02-22T09:15:28.264Z,101494.66
2023-02-22T09:17:54.916Z,101487.84
2023-02-22T09:20:23.679Z,101483.75
2023-02-22T09:22:50.252Z,101493.44
2023-02-22T09:25:19.902Z,101492.03
2023-02-22T09:27:54.134Z,101498.13
2023-02-22T09:30:25.629Z,101489.53
2023-02-22T09:32:55.233Z,101483.66
2023-02-22T09:35:27.542Z,101493.63
2023-02-22T09:38:00.169Z,101496.81
2023-02-22T09:40:32.114Z,101487.94
2023-02-22T09:43:20.641Z,101481.88
2023-02-22T09:46:12.060Z,101488.22
2023-02-22T09:48:50.993Z,101475.78
2023-02-22T09:51:23.314Z,101457.53
2023-02-22T09:53:52.356Z,101459.78
2023-02-22T09:56:20.751Z,101450.75
2023-02-22T09:58:52.214Z,101441.09
2023-02-22T10:01:27.052Z,101449.03
2023-02-22T10:04:03.345Z,101444.47
2023-02-22T10:06:33.469Z,101434.63
2023-02-22T10:09:07.582Z,101442.47
2023-02-22T10:11:57.623Z,101435.41
2023-02-22T10:15:00.743Z,101424.56
2023-02-22T10:17:40.293Z,101428.69
2023-02-22T10:20:10.243Z,101434.94
2023-02-22T10:23:04.552Z,101437.78
2023-02-22T10:25:36.579Z,101429.06
2023-02-22T10:28:32.082Z,101435.81
2023-02-22T10:31:04.447Z,101429.38
2023-02-22T10:33:35.673Z,101432.69
2023-02-22T10:36:03.239Z,101426.88
2023-02-22T10:38:33.270Z,101427.84
2023-02-22T10:41:20.996Z,101431.53
2023-02-22T10:43:47.586Z,101418.94
2023-02-22T10:46:18.957Z,101425.25
2023-02-22T10:48:49.060Z,101429.06
2023-02-22T10:51:15.581Z,101428.75
2023-02-22T10:53:42.139Z,101421.63
2023-02-22T10:56:22.285Z,101424.91
2023-02-22T10:58:59.730Z,101423.91
2023-02-22T11:01:32.527Z,101431.41
2023-02-22T11:04:12.730Z,101422.78
2023-02-22T11:06:44.394Z,101419.81
2023-02-22T11:09:15.614Z,101416.66
2023-02-22T11:11:47.171Z,101412.38
2023-02-22T11:14:28.775Z,101408.72
2023-02-22T11:16:57.404Z,101418.34
2023-02-22T11:19:28.596Z,101412.72
2023-02-22T11:22:21.300Z,101416.03
2023-02-22T11:24:59.248Z,101413.38
2023-02-22T11:27:38.148Z,101406.41
2023-02-22T11:30:35.392Z,101410.41
2023-02-22T11:33:17.124Z,101408.41
2023-02-22T11:35:52.800Z,101407.91
2023-02-22T11:38:21.312Z,101410.41
2023-02-22T11:41:08.161Z,101396.31
2023-02-22T11:43:35.380Z,101394.16
2023-02-22T11:46:14.022Z,101402.44
2023-02-22T11:48:56.741Z,101394.47
2023-02-22T11:51:37.904Z,101384.38
2023-02-22T11:54:40.247Z,101380.41
2023-02-22T11:57:22.737Z,101385.84
2023-02-22T12:00:24.407Z,101378.56
2023-02-22T12:02:56.920Z,101370.63
2023-02-22T12:05:45.267Z,101369.94
2023-02-22T12:08:37.760Z,101371.94
2023-02-22T12:11:26.044Z,101375.25
2023-02-22T12:13:58.817Z,101367.16
2023-02-22T12:16:46.730Z,101381.88
2023-02-22T12:19:29.631Z,101378.91
2023-02-22T12:22:02.600Z,101371.94
2023-02-22T12:25:03.893Z,101365.31
2023-02-22T12:27:44.577Z,101368.16
2023-02-22T12:30:23.617Z,101361.00
2023-02-22T12:32:55.252Z,101364.97
2023-02-22T12:35:25.540Z,101362.31
2023-02-22T12:37:59.608Z,101356.84
2023-02-22T12:40:35.606Z,101355.19
2023-02-22T12:43:12.851Z,101351.88
2023-02-22T12:45:46.406Z,101350.47
2023-02-22T12:48:39.388Z,101346.38
2023-02-22T12:51:21.807Z,101348.53
2023-02-22T12:54:01.343Z,101346.34
2023-02-22T12:56:34.154Z,101348.00
2023-02-22T12:59:19.486Z,101346.03
2023-02-22T13:01:52.155Z,101345.22
2023-02-22T13:04:21.246Z,101345.56
2023-02-22T13:07:16.044Z,101337.75
2023-02-22T13:10:14.480Z,101336.97
2023-02-22T13:13:23.223Z,101341.28
2023-02-22T13:15:52.383Z,101345.06
2023-02-22T13:18:39.257Z,101346.38
2023-02-22T13:21:18.209Z,101344.56
2023-02-22T13:24:05.248Z,101348.88
2023-02-22T13:26:41.374Z,101345.00
2023-02-22T13:29:36.730Z,101344.84
2023-02-22T13:32:28.038Z,101337.19
2023-02-22T13:35:09.660Z,101330.88
2023-02-22T13:37:52.230Z,101339.50
2023-02-22T13:40:43.627Z,101337.59
2023-02-22T13:43:33.963Z,101325.03
2023-02-22T13:46:19.345Z,101338.53
2023-02-22T13:49:14.968Z,101336.84
2023-02-22T13:51:49.058Z,101329.53
2023-02-22T13:54:27.504Z,101333.69
2023-02-22T13:56:56.730Z,101345.00
2023-02-22T13:59:31.480Z,101338.22
2023-02-22T14:02:00.236Z,101334.91
2023-02-22T14:04:26.674Z,101337.56
2023-02-22T14:06:54.616Z,101344.22
2023-02-22T14:09:46.174Z,101341.22
2023-02-22T14:12:31.165Z,101344.53
2023-02-22T14:15:29.802Z,101344.53
2023-02-22T14:17:56.744Z,101354.84
2023-02-22T14:20:35.308Z,101355.50
2023-02-22T14:23:23.691Z,101355.50
2023-02-22T14:25:51.463Z,101358.53
2023-02-22T14:28:39.628Z,101352.09
2023-02-22T14:31:17.404Z,101348.16
2023-02-22T14:33:58.113Z,101365.25
2023-02-22T14:36:42.451Z,101363.25
2023-02-22T14:39:38.355Z,101361.78
2023-02-22T14:42:14.711Z,101357.28
2023-02-22T14:45:10.250Z,101372.41
2023-02-22T14:47:43.874Z,101368.09
2023-02-22T14:50:23.224Z,101363.59
2023-02-22T14:53:02.970Z,101355.28
2023-02-22T14:55:32.779Z,101351.63
2023-02-22T14:58:25.778Z,101358.94
2023-02-22T15:00:53.779Z,101365.94
2023-02-22T15:03:38.681Z,101369.75
2023-02-22T15:06:07.571Z,101363.13
2023-02-22T15:08:34.810Z,101359.47
2023-02-22T15:11:02.397Z,101353.19
2023-02-22T15:13:33.137Z,101347.69
2023-02-22T15:16:02.957Z,101350.66
2023-02-22T15:18:38.180Z,101350.53
2023-02-22T15:21:11.038Z,101349.69
2023-02-22T15:23:52.225Z,101345.03
2023-02-22T15:26:22.210Z,101353.63
2023-02-22T15:28:54.338Z,101351.97
2023-02-22T15:31:35.858Z,101358.97
2023-02-22T15:34:22.263Z,101350.53
2023-02-22T15:36:54.580Z,101353.53
2023-02-22T15:39:34.353Z,101355.00
2023-02-22T15:42:29.705Z,101362.94
2023-02-22T15:44:56.802Z,101364.94
2023-02-22T15:47:25.959Z,101361.16
2023-02-22T15:50:33.245Z,101373.75
2023-02-22T15:53:06.774Z,101370.94
2023-02-22T15:55:47.261Z,101375.56
2023-02-22T15:58:23.677Z,101377.56
2023-02-22T16:01:16.737Z,101370.59
2023-02-22T16:03:47.950Z,101376.91
2023-02-22T16:06:25.716Z,101377.09
2023-02-22T16:08:55.460Z,101378.22
2023-02-22T16:11:48.413Z,101376.09
2023-02-22T16:14:39.173Z,101374.91
2023-02-22T16:17:34.237Z,101378.25
2023-02-22T16:20:18.897Z,101385.88
2023-02-22T16:22:50.205Z,101387.84
2023-02-22T16:25:21.542Z,101393.00
2023-02-22T16:27:52.588Z,101389.34
2023-02-22T16:30:24.792Z,101397.97
2023-02-22T16:32:53.855Z,101399.09
2023-02-22T16:35:20.657Z,101397.75
2023-02-22T16:37:49.446Z,101394.97
2023-02-22T16:40:34.572Z,101407.38
2023-02-22T16:43:11.700Z,101406.34
2023-02-22T16:45:39.637Z,101408.34
2023-02-22T16:48:18.871Z,101415.47
2023-02-22T16:50:46.149Z,101406.19
2023-02-22T16:53:13.177Z,101407.00
2023-02-22T16:55:44.684Z,101404.00
2023-02-22T16:58:13.850Z,101402.22
2023-02-22T17:00:42.204Z,101405.19
2023-02-22T17:03:15.532Z,101410.81
2023-02-22T17:05:42.719Z,101416.59
2023-02-22T17:08:09.235Z,101420.38
2023-02-22T17:10:35.988Z,101423.34
2023-02-22T17:13:16.219Z,101421.88
2023-02-22T17:15:48.285Z,101427.16
2023-02-22T17:18:17.386Z,101425.81
2023-02-22T17:20:44.959Z,101427.63
2023-02-22T17:23:12.334Z,101436.25
2023-02-22T17:25:44.563Z,101436.41
2023-02-22T17:28:12.773Z,101436.75
2023-02-22T17:30:39.910Z,101436.56
2023-02-22T17:33:09.100Z,101435.06
2023-02-22T17:35:38.310Z,101441.84
2023-02-22T17:38:08.687Z,101439.22
2023-02-22T17:40:40.001Z,101446.34
2023-02-22T17:43:10.919Z,101445.34
2023-02-22T17:45:38.478Z,101447.16
2023-02-22T17:48:05.543Z,101444.38
2023-02-22T17:50:32.032Z,101447.00
2023-02-22T17:53:00.601Z,101441.72
2023-02-22T17:55:28.124Z,101445.84
2023-02-22T17:57:58.279Z,101446.16
2023-02-22T18:00:33.770Z,101448.66
2023-02-22T18:03:03.990Z,101455.63
2023-02-22T18:05:33.033Z,101453.13
2023-02-22T18:07:59.997Z,101449.66
2023-02-22T18:10:26.548Z,101455.78
2023-02-22T18:12:53.742Z,101455.09
2023-02-22T18:15:23.503Z,101447.16
2023-02-22T18:17:49.959Z,101455.28
2023-02-22T18:20:30.923Z,101450.97
2023-02-22T18:22:59.179Z,101450.78
2023-02-22T18:25:27.192Z,101458.41
2023-02-22T18:27:54.933Z,101458.59
2023-02-22T18:30:21.647Z,101463.22
2023-02-22T18:32:48.205Z,101463.22
2023-02-22T18:35:14.709Z,101464.88
2023-02-22T18:37:41.296Z,101456.25
2023-02-22T18:40:10.539Z,101460.72
2023-02-22T18:42:39.210Z,101464.22
2023-02-22T18:45:07.393Z,101463.38
2023-02-22T18:47:42.294Z,101462.56
2023-02-22T18:50:12.862Z,101465.34
2023-02-22T18:52:46.072Z,101459.91
2023-02-22T18:55:18.174Z,101466.19
2023-02-22T18:57:45.816Z,101464.34
2023-02-22T19:00:15.576Z,101461.56
2023-02-22T19:02:43.552Z,101455.41
2023-02-22T19:05:12.071Z,101462.38
2023-02-22T19:07:39.618Z,101461.88
2023-02-22T19:10:07.252Z,101457.41
2023-02-22T19:12:34.052Z,101468.16
2023-02-22T19:15:01.034Z,101458.56
2023-02-22T19:17:29.244Z,101465.84
2023-02-22T19:19:55.976Z,101453.91
2023-02-22T19:22:25.962Z,101464.97
2023-02-22T19:24:54.181Z,101463.19
2023-02-22T19:27:21.558Z,101463.50
2023-02-22T19:29:49.417Z,101463.19
2023-02-22T19:32:17.392Z,101463.19
2023-02-22T19:34:44.546Z,101469.59
2023-02-22T19:37:13.088Z,101470.47
2023-02-22T19:39:42.233Z,101464.47
2023-02-22T19:42:10.233Z,101466.78
2023-02-22T19:44:37.537Z,101466.78
2023-02-22T19:47:09.031Z,101471.22
2023-02-22T19:49:40.979Z,101475.72
2023-02-22T19:52:07.467Z,101479.84
2023-02-22T19:54:33.971Z,101479.16
2023-02-22T19:57:01.094Z,101487.78
2023-02-22T19:59:28.686Z,101493.25
2023-02-22T20:01:56.300Z,101492.41
2023-02-22T20:04:24.248Z,101492.88
2023-02-22T20:06:57.502Z,101494.56
2023-02-22T20:09:30.222Z,101494.69
2023-02-22T20:11:56.937Z,101490.69
2023-02-22T20:14:28.320Z,101501.59
2023-02-22T20:16:55.737Z,101498.13
2023-02-22T20:19:22.790Z,101499.78
2023-02-22T20:21:50.140Z,101499.94
2023-02-22T20:24:18.416Z,101506.88
2023-02-22T20:26:46.809Z,101512.34
2023-02-22T20:29:14.213Z,101503.75
2023-02-22T20:31:42.217Z,101505.41
2023-02-22T20:34:09.896Z,101507.19
2023-02-22T20:36:39.129Z,101522.41
2023-02-22T20:39:07.493Z,101519.09
2023-02-22T20:41:35.717Z,101519.94
2023-02-22T20:44:03.656Z,101521.59
2023-02-22T20:46:31.724Z,101519.75
2023-02-22T20:49:00.348Z,101516.00
2023-02-22T20:51:27.947Z,101501.41
2023-02-22T20:53:56.574Z,101507.06
2023-02-22T20:56:24.151Z,101513.03
2023-02-22T20:58:50.935Z,101509.53
2023-02-22T21:01:20.036Z,101522.94
2023-02-22T21:03:46.968Z,101531.88
2023-02-22T21:06:18.106Z,101521.59
2023-02-22T21:08:49.172Z,101522.41
2023-02-22T21:11:17.783Z,101523.56
2023-02-22T21:13:44.529Z,101523.56
2023-02-22T21:16:18.903Z,101521.06
2023-02-22T21:18:45.710Z,101529.16
2023-02-22T21:21:12.590Z,101525.84
2023-02-22T21:23:42.465Z,101525.16
2023-02-22T21:26:16.596Z,101525.00
2023-02-22T21:28:51.358Z,101519.88
2023-02-22T21:31:20.370Z,101525.84
2023-02-22T21:33:49.916Z,101521.53
2023-02-22T21:36:16.970Z,101515.72
2023-02-22T21:38:46.606Z,101528.94
2023-02-22T21:41:15.268Z,101521.16
2023-02-22T21:43:43.133Z,101533.41
2023-02-22T21:46:10.760Z,101523.81
2023-02-22T21:48:39.170Z,101529.78
2023-02-22T21:51:13.976Z,101520.31
2023-02-22T21:53:48.576Z,101535.22
2023-02-22T21:56:19.039Z,101517.84
2023-02-22T21:58:47.022Z,101530.91
2023-02-22T22:01:17.615Z,101520.50
2023-02-22T22:03:47.053Z,101519.81
2023-02-22T22:06:14.456Z,101528.75
2023-02-22T22:08:42.185Z,101527.59
2023-02-22T22:11:13.776Z,101533.19
2023-02-22T22:13:41.848Z,101532.19
2023-02-22T22:16:17.196Z,101525.38
2023-02-22T22:18:45.395Z,101527.59
2023-02-22T22:21:16.364Z,101531.88
2023-02-22T22:23:46.688Z,101520.50
2023-02-22T22:26:16.383Z,101529.56
2023-02-22T22:28:49.391Z,101534.84
2023-02-22T22:31:17.358Z,101528.16
2023-02-22T22:33:45.381Z,101529.31
2023-02-22T22:36:14.580Z,101526.22
2023-02-22T22:38:41.520Z,101533.19
2023-02-22T22:41:13.221Z,101535.44
2023-02-22T22:43:41.639Z,101536.03
2023-02-22T22:46:10.033Z,101532.41
2023-02-22T22:48:39.009Z,101536.88
2023-02-22T22:51:11.564Z,101532.22
2023-02-22T22:53:42.035Z,101530.38
2023-02-22T22:56:15.864Z,101529.25
2023-02-22T22:58:46.673Z,101521.94
2023-02-22T23:01:18.421Z,101518.31
2023-02-22T23:04:00.563Z,101536.50
2023-02-22T23:06:31.003Z,101527.22
2023-02-22T23:09:01.932Z,101529.69
2023-02-22T23:11:33.576Z,101528.88
2023-02-22T23:14:03.794Z,101528.56
2023-02-22T23:16:32.264Z,101536.66
2023-02-22T23:18:59.171Z,101535.53
2023-02-22T23:21:25.689Z,101540.97
2023-02-22T23:23:58.228Z,101534.84
2023-02-22T23:26:26.835Z,101536.81
2023-02-22T23:28:56.196Z,101529.56
2023-02-22T23:31:24.015Z,101546.09
2023-02-22T23:33:50.987Z,101542.47
2023-02-22T23:36:18.744Z,101541.25
2023-02-22T23:38:46.128Z,101550.19
2023-02-22T23:41:16.508Z,101541.13
2023-02-22T23:43:45.630Z,101553.06
2023-02-22T23:46:18.447Z,101548.50
2023-02-22T23:48:54.745Z,101555.47
2023-02-22T23:51:26.529Z,101556.00
2023-02-22T23:53:57.362Z,101559.47
2023-02-22T23:56:27.869Z,101558.66
2023-02-22T23:58:57.383Z,101553.81
